Richmond, Virginia
Current Conditions -  °F | °C
As of 7:54 PM on Monday 26 Jan 2015 (Local Time) from KRIC Reporting Station
Overcast Overcast  
Wind Chill: -4°   Ceiling: 700
Heat Index:   Visibility: 7mi
Dew Point:   Wind: 15mph
Humidity: 92%   Direction: 350°N
Pressure: 29.69"   Gusts: NA
Location:  37.54°N, 77.43°W
Report Text: KRIC 270054Z 35013KT 7SM OVC007 02/01 A2969 RMK AO2 SLP060 T00170006
Loading
Personal Weather Stations






























Interactive Weather Map New forecast layout! Learn more

10-Day Weather Forecast

Advertisements
Track Severe Weather on mobile